Overview Statistics Trail Chart Weather Telemetry Raw packets
 

This is the latest recevied weather packets stored in our database for station/object KF7SOJ. If no packets are shown the sender has not sent any weather packets the latest 10 day(s).

<< 24 25 26 27 28 29 30 >>
Time Temp. Humidity Pressure Rain* Wind** Luminosity Snow
1788449966 22.22° C 30% 927.5 hPa 0 mm - 461 W/m² -
1788449662 18.33° C 43% 927.4 hPa 0 mm - 151 W/m² -
1788449359 18.33° C 43% 927.6 hPa 0 mm - 151 W/m² -
1788449055 18.33° C 43% 927.6 hPa 0 mm - 151 W/m² -
1788448754 18.33° C 43% 927.4 hPa 0 mm - 151 W/m² -
1788448449 18.33° C 43% 927.5 hPa 0 mm - 151 W/m² -
1788448144 18.33° C 43% 927.5 hPa 0 mm - 151 W/m² -
1788447838 18.33° C 43% 927.4 hPa 0 mm - 151 W/m² -
1788447533 18.33° C 43% 927.6 hPa 0 mm - 151 W/m² -
1788447229 18.33° C 43% 927.4 hPa 0 mm - 151 W/m² -
1788446928 18.33° C 43% 927 hPa 0 mm - 151 W/m² -
1788446623 18.33° C 43% 927.2 hPa 0 mm - 151 W/m² -
1788446318 18.33° C 43% 927.2 hPa 0 mm - 151 W/m² -
1788446015 17.22° C 45% 927.3 hPa 0 mm - 135 W/m² -
1788445710 17.22° C 45% 927.4 hPa 0 mm - 135 W/m² -
1788445406 17.22° C 44% 927.1 hPa 0 mm - 138 W/m² -
1788445102 17.22° C 46% 927.3 hPa 0 mm - 106 W/m² -
1788444798 16.67° C 44% 927.4 hPa 0 mm - 96 W/m² -
1788444498 16.11° C 48% 927.1 hPa 0 mm - 81 W/m² -
1788444193 16.11° C 48% 927 hPa 0 mm - 65 W/m² -
1788443889 16.11° C 48% 926.9 hPa 0 mm - 54 W/m² -
1788443584 16.11° C 47% 927.1 hPa 0 mm - 43 W/m² -
1788443282 16.11° C 49% 927.1 hPa 0 mm - 38 W/m² -
1788442978 16.11° C 48% 927.1 hPa 0 mm - 36 W/m² -
1788442675 16.11° C 47% 927 hPa 0 mm - 34 W/m² -

* Rain latest hour (hover to see other rain measurements)
** Current wind speed in m/s (hover to see current wind gust speed)